Flight Track Log - Related Links

Times and Time Zones

All times are in EDT time to prevent confusion due to time zone crossing. See the SKW6306 flight status page for this flight to view local times or setup timezone preferences in your user account.

Time Position Orientation Groundspeed Altitude Reporting Facility
EDT Latitude Longitude Course Direction KTS MPH feet Rate Location/Type
Sun 10:37:47 PM 39.8667 -104.7833 285° West 209 241 7,900  Level Denver TRACON
Sun 10:38:47 PM 39.8833 -104.8667 285° West 230 265 9,800 1,533 Climbing Denver TRACON
Sun 10:39:17 PM 39.8986 -104.8789 328° Northwest 232 267 10,200 1,500 Climbing Denver Center
Sun 10:40:19 PM 39.9697 -104.9489 323° Northwest 274 315 12,100 1,597 Climbing Denver Center
Sun 10:41:21 PM 40.0575 -104.9419 North 311 358 13,500 1,512 Climbing Denver Center
Sun 10:42:22 PM 40.1594 -104.9294 North 332 382 15,200 1,805 Climbing Denver Center
Sun 10:43:24 PM 40.2553 -104.9175 North 344 396 17,200 1,854 Climbing Denver Center
Sun 10:44:25 PM 40.3492 -104.9067 North 336 387 19,000 1,463 Climbing Denver Center
Sun 10:45:27 PM 40.4444 -104.8964 North 345 397 20,200 1,065 Climbing Denver Center
Sun 10:46:29 PM 40.5539 -104.8831 North 364 419 21,200 878 Climbing Denver Center
Sun 10:47:30 PM 40.6614 -104.8714 North 388 447 22,000 732 Climbing Denver Center
Sun 10:48:32 PM 40.7719 -104.8519 North 389 448 22,700 732 Climbing Denver Center
Sun 10:49:33 PM 40.8775 -104.8914 344° North 396 456 23,500 780 Climbing Denver Center
Sun 10:50:35 PM 40.9814 -104.9444 339° North 400 460 24,300 829 Climbing Denver Center
Sun 10:51:36 PM 41.0906 -104.9989 339° North 402 463 25,200 878 Climbing Denver Center
Sun 10:52:38 PM 41.2050 -105.0692 335° Northwest 409 471 26,100 774 Climbing Denver Center
Sun 10:53:40 PM 41.2875 -105.1617 320° Northwest 405 466 26,800 732 Climbing Denver Center
Sun 10:54:41 PM 41.3672 -105.2572 318° Northwest 403 464 27,600 829 Climbing Denver Center
Sun 10:55:43 PM 41.4622 -105.3667 319° Northwest 404 465 28,500 732 Climbing Denver Center
Sun 10:56:44 PM 41.5283 -105.4442 319° Northwest 399 459 29,100 683 Climbing Denver Center
Sun 10:57:46 PM 41.6358 -105.5708 319° Northwest 402 463 29,900 683 Climbing Denver Center
Sun 10:58:47 PM 41.7161 -105.6647 319° Northwest 400 460 30,500 585 Climbing Denver Center
Sun 10:59:49 PM 41.7969 -105.7606 319° Northwest 403 464 31,100 585 Climbing Denver Center
Sun 11:00:50 PM 41.8775 -105.8564 318° Northwest 403 464 31,700 439 Climbing Denver Center
Sun 11:01:52 PM 41.9703 -105.9667 319° Northwest 400 460 32,000 146 Climbing Denver Center
Sun 11:02:53 PM 42.0675 -106.0831 318° Northwest 414 476 32,000  Level Denver Center
Sun 11:03:55 PM 42.1492 -106.1828 318° Northwest 414 476 32,000  Level Denver Center
Sun 11:05:08 PM 42.2342 -106.2867 318° Northwest 425 489 32,000  Level Denver Center
Sun 11:06:10 PM 42.3478 -106.4247 318° Northwest 430 495 32,000  Level Denver Center
Sun 11:07:12 PM 42.4333 -106.5294 318° Northwest 431 496 32,000  Level Denver Center
Sun 11:08:37 PM 42.5486 -106.6675 319° Northwest 433 498 32,000  Level Denver Center
Sun 11:09:40 PM 42.6619 -106.8081 318° Northwest 434 499 32,000  Level Denver Center
Sun 11:10:41 PM 42.7525 -106.9089 321° Northwest 438 504 32,000  Level Denver Center
Sun 11:11:42 PM 42.8656 -107.0147 326° Northwest 441 507 32,000  Level Denver Center
Sun 11:12:44 PM 42.9608 -107.1044 325° Northwest 435 501 32,000  Level Denver Center
Sun 11:13:56 PM 43.0728 -107.2164 324° Northwest 435 501 32,000  Level Salt Lake Center
Sun 11:14:57 PM 43.1669 -107.3436 315° West 428 493 32,000  Level Salt Lake Center
Sun 11:15:58 PM 43.2492 -107.4522 316° Northwest 430 495 32,000 -341 Level Salt Lake Center
Sun 11:17:00 PM 43.3314 -107.5619 316° Northwest 431 496 31,300 -1,073 Descending Salt Lake Center
Sun 11:18:01 PM 43.4283 -107.6933 315° West 438 504 29,800 -1,475 Descending Salt Lake Center
Sun 11:19:02 PM 43.5111 -107.8061 315° West 436 502 28,300 -1,659 Descending Salt Lake Center
Sun 11:20:04 PM 43.6056 -107.9344 315° West 428 493 26,400 -1,902 Descending Salt Lake Center
Sun 11:21:05 PM 43.6864 -108.0456 315° West 427 491 24,400 -1,967 Descending Salt Lake Center
Sun 11:22:06 PM 43.7797 -108.1442 323° Northwest 441 507 22,400 -2,311 Descending Salt Lake Center
Sun 11:23:07 PM 43.8764 -108.2717 316° Northwest 430 495 19,700 -2,557 Descending Salt Lake Center
Sun 11:24:08 PM 43.9528 -108.3822 314° West 419 482 17,200 -2,146 Descending Salt Lake Center
Sun 11:25:10 PM 44.0283 -108.4881 315° West 412 474 15,300 -1,951 Descending Salt Lake Center
Sun 11:26:11 PM 44.1117 -108.6100 314° West 400 460 13,200 -1,967 Descending Salt Lake Center
Sun 11:27:12 PM 44.1806 -108.7103 314° West 389 448 11,300 -1,574 Descending Salt Lake Center
Sun 11:28:13 PM 44.2594 -108.8275 313° West 379 436 10,000 -934 Descending Salt Lake Center
Sun 11:29:14 PM 44.3117 -108.9047 313° West 329 379 9,400 -1,024 Descending Salt Lake Center
Sun 11:30:16 PM 44.3642 -108.9794 315° West 290 334 7,900 -1,452 Descending Salt Lake Center

Login

Don't have an account? Register now (free) for customized features, flight alerts, and more!